To NAV CANADA Home Page Login to a new session Search on AWWS site Feedback and Comments Disclaimer Vers la page française équivalente Tips FAQ What's new on the site To the Forecasts and Observations / NOTAM section To "File a Flight Plan" website Publications and other links Update of the User's profile FIC Telephone Numbers My Weather Data Folder Route Weather Data Regional Weather Data Local Weather Data To the Forecasts and Observations / NOTAM section
Request Generated 08/29/2016 at 05:17:35 UTC . Weather information available at that time is displayed.

METAR/TAF

HALIFAX/STANFIELD INTL/NS    (show WxCam)

METAR CYHZ 290500Z 18006KT 15SM FEW019 BKN140 16/15 A3015 RMK SC2AC4
SLP213=
METAR CYHZ 290400Z 17006KT 15SM BKN140 16/15 A3018 RMK AC7 SLP221=
METAR CYHZ 290300Z 18007KT 15SM BKN120 16/15 A3019 RMK AC7 SLP226=

TAF CYHZ 290238Z 2903/2924 20007KT P6SM OVC120
FM290800 20007KT P6SM BKN010 OVC080 PROB30 2908/2912 5SM -SHRA BR
OVC007
FM291200 20012KT P6SM BKN025 OVC060
BECMG 2913/2915 21015G25KT
FM292000 26012KT P6SM BKN040
BECMG 2921/2923 30015G25KT
RMK NXT FCST BY 290600Z=
Your time UTC time
Weather data provided by Environment Canada and NAV CANADA